Time;durP1;ratioP1;P1;durP2;ratioP2;P2;SDS_P1;SDS_P2;PMS_P1;PMS_P2;Temp;Humidity;BMP_temperature;BMP_pressure;BME280_temperature;BME280_humidity;BME280_pressure;Samples;Min_cycle;Max_cycle;Signal;HPM_P1;HPM_P2
2022/05/18 00:00:18;;;;;;;0.17;0.17;;;;;;;;;;5014299;28;20052;-84
2022/05/18 00:02:44;;;;;;;0.65;0.40;;;;;;;;;;5013104;28;20037;-85
2022/05/18 00:05:09;;;;;;;2.85;0.82;;;;;;;;;;4999070;28;20041;-85
2022/05/18 00:07:35;;;;;;;1.15;0.85;;;;;;;;;;4997286;28;20033;-85
2022/05/18 00:10:00;;;;;;;0.20;0.15;;;;;;;;;;5030412;28;20453;-85
2022/05/18 00:12:26;;;;;;;0.30;0.30;;;;;;;;;;5013583;28;20037;-87
2022/05/18 00:14:52;;;;;;;11.57;0.63;;;;;;;;;;4998377;28;20451;-85
2022/05/18 00:17:17;;;;;;;0.40;0.32;;;;;;;;;;4997302;28;20113;-85
2022/05/18 00:19:43;;;;;;;0.50;0.35;;;;;;;;;;4997071;28;20033;-86
2022/05/18 00:22:09;;;;;;;0.40;0.28;;;;;;;;;;4995194;28;20060;-85
2022/05/18 00:24:35;;;;;;;0.35;0.20;;;;;;;;;;5013637;28;20404;-84
2022/05/18 00:27:03;;;;;;;0.20;0.20;;;;;;;;;;4994253;28;20046;-86
2022/05/18 00:29:31;;;;;;;0.25;0.20;;;;;;;;;;5012332;28;20036;-86
2022/05/18 00:31:57;;;;;;;0.55;0.40;;;;;;;;;;4997041;28;20501;-85
2022/05/18 00:34:22;;;;;;;0.52;0.30;;;;;;;;;;4997612;28;20025;-83
2022/05/18 00:36:47;;;;;;;1.25;0.73;;;;;;;;;;4997122;28;20045;-83
2022/05/18 00:39:13;;;;;;;1.08;0.57;;;;;;;;;;5013507;28;20030;-86
2022/05/18 00:41:38;;;;;;;1.55;0.73;;;;;;;;;;5014519;28;20033;-85
2022/05/18 00:44:04;;;;;;;0.28;0.28;;;;;;;;;;4998227;28;20072;-85
2022/05/18 00:46:29;;;;;;;0.32;0.30;;;;;;;;;;4996617;28;20037;-85
2022/05/18 00:48:55;;;;;;;0.25;0.20;;;;;;;;;;4995655;28;20034;-85
2022/05/18 00:51:32;;;;;;;0.10;0.10;;;;;;;;;;4997825;28;20927;-85
2022/05/18 00:54:09;;;;;;;0.40;0.30;;;;;;;;;;4995985;28;20037;-84
2022/05/18 00:56:41;;;;;;;1.85;0.73;;;;;;;;;;4991675;28;20026;-86
2022/05/18 00:59:11;;;;;;;0.10;0.10;;;;;;;;;;4978823;28;20038;-86
2022/05/18 01:01:37;;;;;;;1.15;0.47;;;;;;;;;;4978193;28;20061;-85
2022/05/18 01:04:04;;;;;;;0.30;0.10;;;;;;;;;;5003235;28;20033;-85
2022/05/18 01:06:32;;;;;;;0.77;0.60;;;;;;;;;;4996179;28;20140;-85
2022/05/18 01:09:03;;;;;;;0.08;0.08;;;;;;;;;;5027809;28;20046;-83
2022/05/18 01:11:29;;;;;;;0.55;0.38;;;;;;;;;;5000449;28;20389;-86
2022/05/18 01:13:55;;;;;;;0.38;0.25;;;;;;;;;;4978252;28;20038;-85
2022/05/18 01:16:21;;;;;;;0.20;0.15;;;;;;;;;;4989984;28;20033;-84
2022/05/18 01:18:47;;;;;;;0.40;0.28;;;;;;;;;;4978640;28;20163;-84
2022/05/18 01:21:12;;;;;;;0.13;0.13;;;;;;;;;;4991595;28;20038;-85
2022/05/18 01:23:49;;;;;;;0.82;0.60;;;;;;;;;;4980715;28;20080;-86
2022/05/18 01:26:43;;;;;;;0.10;0.10;;;;;;;;;;4985601;28;20046;-88
2022/05/18 01:29:08;;;;;;;0.15;0.15;;;;;;;;;;5007983;28;20770;-89
2022/05/18 01:31:48;;;;;;;0.50;0.40;;;;;;;;;;4994446;28;20030;-86
2022/05/18 01:34:15;;;;;;;0.10;0.10;;;;;;;;;;5027943;28;20392;-85
2022/05/18 01:36:40;;;;;;;0.55;0.30;;;;;;;;;;4995799;28;20124;-84
2022/05/18 01:39:09;;;;;;;0.10;0.10;;;;;;;;;;4996856;28;20159;-87
2022/05/18 01:41:38;;;;;;;1.63;0.60;;;;;;;;;;5031069;28;20496;-85
2022/05/18 01:44:04;;;;;;;0.13;0.13;;;;;;;;;;4984191;28;20120;-85
2022/05/18 01:46:31;;;;;;;0.30;0.30;;;;;;;;;;4999217;28;20025;-86
2022/05/18 01:48:57;;;;;;;0.70;0.40;;;;;;;;;;5014042;28;20040;-85
2022/05/18 01:51:44;;;;;;;0.30;0.30;;;;;;;;;;4999543;28;20033;-84
2022/05/18 01:54:09;;;;;;;;;;;;;;;;;;5010507;28;20106;-85
2022/05/18 01:56:35;;;;;;;0.10;0.10;;;;;;;;;;4992006;28;20329;-84
2022/05/18 01:59:00;;;;;;;0.52;0.30;;;;;;;;;;4999437;28;20147;-87
2022/05/18 02:01:26;;;;;;;0.20;0.20;;;;;;;;;;5015080;28;20029;-86
2022/05/18 02:03:53;;;;;;;0.50;0.30;;;;;;;;;;5015203;28;20603;-87
2022/05/18 02:06:18;;;;;;;0.47;0.20;;;;;;;;;;5019209;28;20041;-87
2022/05/18 02:08:44;;;;;;;0.30;0.30;;;;;;;;;;5004882;28;20087;-87
2022/05/18 02:11:13;;;;;;;7.57;0.63;;;;;;;;;;5001214;28;20049;-89
2022/05/18 02:13:39;;;;;;;0.95;0.47;;;;;;;;;;5013830;28;20032;-88
2022/05/18 02:16:04;;;;;;;0.40;0.35;;;;;;;;;;4999635;28;20575;-89
2022/05/18 02:18:30;;;;;;;0.10;0.10;;;;;;;;;;4998763;28;20040;-86
2022/05/18 02:20:55;;;;;;;0.30;0.25;;;;;;;;;;4996888;28;20037;-83
2022/05/18 02:23:21;;;;;;;1.80;0.50;;;;;;;;;;4999520;28;20065;-87
2022/05/18 02:25:46;;;;;;;0.10;0.10;;;;;;;;;;5032721;28;20052;-87
2022/05/18 02:28:12;;;;;;;0.30;0.30;;;;;;;;;;4997267;28;20037;-87
2022/05/18 02:30:37;;;;;;;0.20;0.20;;;;;;;;;;5018095;28;20033;-88
2022/05/18 02:33:03;;;;;;;3.72;0.55;;;;;;;;;;4998010;28;20037;-86
2022/05/18 02:35:28;;;;;;;0.52;0.40;;;;;;;;;;4997810;28;20033;-86
2022/05/18 02:37:54;;;;;;;0.10;0.10;;;;;;;;;;5014452;28;20501;-86
2022/05/18 02:40:19;;;;;;;0.10;0.10;;;;;;;;;;4997994;28;20112;-87
2022/05/18 02:42:45;;;;;;;0.45;0.35;;;;;;;;;;5015095;28;20049;-87
2022/05/18 02:45:10;;;;;;;0.45;0.28;;;;;;;;;;4996224;28;20381;-85
2022/05/18 02:47:35;;;;;;;0.17;0.17;;;;;;;;;;4997998;28;20120;-86
2022/05/18 02:50:01;;;;;;;0.30;0.20;;;;;;;;;;4998219;28;20037;-85
2022/05/18 02:52:26;;;;;;;0.40;0.30;;;;;;;;;;4998824;28;20476;-85
2022/05/18 02:57:35;;;;;;;20.90;1.13;;;;;;;;;;5016519;28;20060;-79
2022/05/18 03:00:01;;;;;;;0.10;0.10;;;;;;;;;;4998469;28;20057;-79
2022/05/18 03:02:26;;;;;;;0.30;0.20;;;;;;;;;;4996471;28;20029;-80
2022/05/18 03:04:52;;;;;;;0.47;0.32;;;;;;;;;;4998758;28;20045;-80
2022/05/18 03:07:17;;;;;;;0.52;0.38;;;;;;;;;;4996471;28;20596;-80
2022/05/18 03:09:43;;;;;;;1.25;0.70;;;;;;;;;;5028618;28;20045;-79
2022/05/18 03:12:09;;;;;;;0.10;0.10;;;;;;;;;;4996282;28;20041;-80
2022/05/18 03:14:34;;;;;;;0.63;0.32;;;;;;;;;;4996708;28;20029;-80
2022/05/18 03:17:00;;;;;;;9.68;0.55;;;;;;;;;;4996052;28;20060;-79
2022/05/18 03:19:26;;;;;;;0.10;0.10;;;;;;;;;;5013640;28;20497;-81
2022/05/18 03:24:35;;;;;;;0.43;0.30;;;;;;;;;;5015652;28;20087;-79
2022/05/18 03:27:03;;;;;;;0.10;0.10;;;;;;;;;;5012491;28;20041;-79
2022/05/18 03:29:28;;;;;;;0.90;0.20;;;;;;;;;;4996895;28;20115;-79
2022/05/18 03:31:54;;;;;;;0.20;0.20;;;;;;;;;;5013367;28;20033;-80
2022/05/18 03:34:19;;;;;;;0.38;0.20;;;;;;;;;;4998191;28;20030;-80
2022/05/18 03:36:44;;;;;;;0.30;0.20;;;;;;;;;;5014196;28;20052;-79
2022/05/18 03:39:10;;;;;;;0.10;0.10;;;;;;;;;;5012716;28;20094;-79
2022/05/18 03:41:36;;;;;;;0.95;0.60;;;;;;;;;;5011302;28;20477;-80
2022/05/18 03:44:05;;;;;;;0.20;0.20;;;;;;;;;;5011567;28;20439;-79
2022/05/18 03:46:30;;;;;;;0.10;0.10;;;;;;;;;;5013816;28;20025;-80
2022/05/18 03:48:56;;;;;;;0.10;0.10;;;;;;;;;;5012551;28;20064;-80
2022/05/18 03:51:21;;;;;;;0.20;0.17;;;;;;;;;;5014192;28;20400;-80
2022/05/18 03:53:47;;;;;;;0.15;0.10;;;;;;;;;;4998346;28;20041;-80
2022/05/18 03:56:13;;;;;;;0.55;0.40;;;;;;;;;;5012351;28;20033;-80
2022/05/18 03:58:38;;;;;;;0.17;0.13;;;;;;;;;;4996317;28;20032;-80
2022/05/18 04:01:08;;;;;;;0.10;0.10;;;;;;;;;;4994286;28;20044;-79
2022/05/18 04:03:35;;;;;;;0.10;0.10;;;;;;;;;;4997040;28;20094;-80
2022/05/18 04:06:00;;;;;;;0.20;0.20;;;;;;;;;;4995386;28;20041;-81
2022/05/18 04:08:26;;;;;;;0.25;0.25;;;;;;;;;;4996145;28;20492;-80
2022/05/18 04:10:53;;;;;;;0.35;0.22;;;;;;;;;;5014325;28;20032;-81
2022/05/18 04:13:20;;;;;;;0.75;0.52;;;;;;;;;;4995427;28;20037;-80
2022/05/18 04:15:45;;;;;;;0.35;0.25;;;;;;;;;;5012040;28;20068;-79
2022/05/18 04:18:11;;;;;;;0.15;0.13;;;;;;;;;;4995588;28;20568;-80
2022/05/18 04:20:38;;;;;;;0.20;0.20;;;;;;;;;;4995871;28;20432;-80
2022/05/18 04:23:04;;;;;;;0.10;0.10;;;;;;;;;;5009836;28;20042;-79
2022/05/18 04:25:29;;;;;;;0.32;0.20;;;;;;;;;;4995456;28;21489;-79
2022/05/18 04:27:55;;;;;;;0.43;0.25;;;;;;;;;;4996918;28;20041;-79
2022/05/18 04:30:24;;;;;;;0.35;0.20;;;;;;;;;;5030558;28;20091;-80
2022/05/18 04:32:49;;;;;;;0.10;0.10;;;;;;;;;;5011727;28;20033;-80
2022/05/18 04:35:17;;;;;;;0.57;0.40;;;;;;;;;;4994856;28;20667;-80
2022/05/18 04:37:43;;;;;;;0.20;0.17;;;;;;;;;;5012271;28;20037;-80
2022/05/18 04:40:09;;;;;;;0.75;0.63;;;;;;;;;;4990890;28;20583;-80
2022/05/18 04:42:35;;;;;;;0.28;0.20;;;;;;;;;;5012396;28;20044;-80
2022/05/18 04:45:00;;;;;;;0.28;0.10;;;;;;;;;;4996378;28;20046;-81
2022/05/18 04:47:26;;;;;;;0.10;0.10;;;;;;;;;;4981838;28;20167;-82
2022/05/18 04:49:52;;;;;;;0.10;0.10;;;;;;;;;;4998109;28;20041;-85
2022/05/18 04:52:18;;;;;;;1.77;0.43;;;;;;;;;;5013089;28;20634;-85
2022/05/18 04:54:43;;;;;;;0.20;0.20;;;;;;;;;;4998315;28;20045;-84
2022/05/18 04:57:09;;;;;;;0.10;0.10;;;;;;;;;;5010087;28;20493;-87
2022/05/18 04:59:34;;;;;;;0.63;0.30;;;;;;;;;;4996895;28;20434;-85
2022/05/18 05:01:59;;;;;;;0.55;0.32;;;;;;;;;;4994948;28;20037;-85
2022/05/18 05:04:25;;;;;;;0.77;0.43;;;;;;;;;;5011554;28;20041;-85
2022/05/18 05:06:50;;;;;;;0.10;0.10;;;;;;;;;;5000525;28;20512;-83
2022/05/18 05:09:16;;;;;;;5.45;0.57;;;;;;;;;;4996169;28;20038;-83
2022/05/18 05:11:42;;;;;;;0.32;0.20;;;;;;;;;;4994665;28;20117;-84
2022/05/18 05:14:08;;;;;;;0.25;0.22;;;;;;;;;;4997789;28;20520;-83
2022/05/18 05:16:33;;;;;;;0.38;0.35;;;;;;;;;;4998111;28;20132;-86
2022/05/18 05:18:59;;;;;;;0.13;0.13;;;;;;;;;;4997935;28;20461;-84
2022/05/18 05:21:27;;;;;;;0.10;0.10;;;;;;;;;;4995885;28;20066;-80
2022/05/18 05:23:52;;;;;;;0.30;0.25;;;;;;;;;;5012454;28;20052;-80
2022/05/18 05:26:17;;;;;;;0.38;0.30;;;;;;;;;;4992882;28;20040;-83
2022/05/18 05:28:43;;;;;;;0.20;0.20;;;;;;;;;;4996717;28;20044;-81
2022/05/18 05:31:10;;;;;;;0.10;0.10;;;;;;;;;;4984414;28;20038;-79
2022/05/18 05:33:37;;;;;;;0.50;0.40;;;;;;;;;;5011904;28;20037;-80
2022/05/18 05:36:06;;;;;;;1.88;1.08;;;;;;;;;;4995199;28;20049;-80
2022/05/18 05:38:32;;;;;;;0.28;0.20;;;;;;;;;;5012256;28;20087;-82
2022/05/18 05:41:00;;;;;;;0.22;0.22;;;;;;;;;;5012315;28;20034;-79
2022/05/18 05:43:25;;;;;;;;;;;;;;;;;;5012487;28;20095;-80
2022/05/18 05:45:55;;;;;;;0.10;0.10;;;;;;;;;;5011823;28;20373;-80
2022/05/18 05:48:20;;;;;;;0.10;0.10;;;;;;;;;;5011327;28;20440;-79
2022/05/18 05:50:45;;;;;;;0.25;0.25;;;;;;;;;;4999950;28;20045;-80
2022/05/18 05:53:11;;;;;;;0.32;0.30;;;;;;;;;;4999082;28;20692;-79
2022/05/18 05:55:36;;;;;;;0.30;0.22;;;;;;;;;;4995188;28;20034;-80
2022/05/18 05:58:01;;;;;;;0.65;0.40;;;;;;;;;;4995115;28;20034;-78
2022/05/18 06:00:27;;;;;;;1.55;0.95;;;;;;;;;;5008716;28;20072;-79
2022/05/18 06:02:52;;;;;;;0.28;0.20;;;;;;;;;;4993540;28;20181;-79
2022/05/18 06:05:18;;;;;;;1.10;0.60;;;;;;;;;;4993898;28;20127;-78
2022/05/18 06:07:44;;;;;;;0.88;0.45;;;;;;;;;;5011724;28;20056;-79
2022/05/18 06:10:11;;;;;;;0.20;0.20;;;;;;;;;;5010000;28;20823;-80
2022/05/18 06:12:37;;;;;;;0.10;0.10;;;;;;;;;;4991890;28;20034;-80
2022/05/18 06:15:04;;;;;;;0.20;0.20;;;;;;;;;;5009955;28;20481;-80
2022/05/18 06:17:29;;;;;;;0.30;0.20;;;;;;;;;;4994116;28;20083;-79
2022/05/18 06:19:54;;;;;;;0.82;0.40;;;;;;;;;;4995117;28;20042;-79
2022/05/18 06:22:20;;;;;;;0.35;0.20;;;;;;;;;;5010489;28;20033;-79
2022/05/18 06:24:49;;;;;;;0.10;0.10;;;;;;;;;;5011229;28;20676;-79
2022/05/18 06:27:14;;;;;;;1.02;0.22;;;;;;;;;;4993704;28;20775;-80
2022/05/18 06:29:40;;;;;;;2.03;0.90;;;;;;;;;;4993154;28;20175;-79
2022/05/18 06:32:08;;;;;;;0.25;0.20;;;;;;;;;;4993389;28;20045;-80
2022/05/18 06:34:35;;;;;;;7.32;1.00;;;;;;;;;;5012811;28;20030;-80
2022/05/18 06:37:03;;;;;;;2.00;0.98;;;;;;;;;;4993657;28;20046;-80
2022/05/18 06:39:28;;;;;;;0.28;0.20;;;;;;;;;;4995911;28;20030;-80
2022/05/18 06:41:53;;;;;;;0.52;0.40;;;;;;;;;;4993144;28;20049;-79
2022/05/18 06:44:19;;;;;;;0.45;0.22;;;;;;;;;;5010461;28;20037;-78
2022/05/18 06:46:47;;;;;;;0.60;0.40;;;;;;;;;;5025683;28;20821;-84
2022/05/18 06:49:12;;;;;;;0.20;0.17;;;;;;;;;;5012351;28;20038;-84
2022/05/18 06:51:40;;;;;;;0.82;0.43;;;;;;;;;;4991941;28;20042;-84
2022/05/18 06:54:06;;;;;;;0.75;0.45;;;;;;;;;;4995903;28;20092;-83
2022/05/18 06:56:35;;;;;;;0.38;0.20;;;;;;;;;;4995222;28;20457;-85
2022/05/18 06:59:01;;;;;;;0.35;0.30;;;;;;;;;;5009561;28;20458;-84
2022/05/18 07:01:28;;;;;;;0.47;0.38;;;;;;;;;;4993951;28;20029;-83
2022/05/18 07:03:53;;;;;;;0.40;0.15;;;;;;;;;;5012736;28;20041;-83
2022/05/18 07:06:22;;;;;;;0.20;0.10;;;;;;;;;;4993942;28;20041;-84
2022/05/18 07:08:50;;;;;;;1.10;0.52;;;;;;;;;;5014195;28;20037;-85
2022/05/18 07:11:15;;;;;;;0.73;0.52;;;;;;;;;;5025541;28;20044;-84
2022/05/18 07:13:41;;;;;;;0.15;0.10;;;;;;;;;;4992022;28;20033;-85
2022/05/18 07:16:06;;;;;;;0.10;0.10;;;;;;;;;;5009650;28;20084;-83
2022/05/18 07:18:33;;;;;;;0.28;0.17;;;;;;;;;;5008617;28;20041;-84
2022/05/18 07:21:00;;;;;;;0.15;0.10;;;;;;;;;;5008485;28;20378;-84
2022/05/18 07:23:26;;;;;;;0.45;0.30;;;;;;;;;;4977224;28;20904;-84
2022/05/18 07:25:52;;;;;;;0.43;0.25;;;;;;;;;;5009065;28;20132;-83
2022/05/18 07:28:18;;;;;;;0.20;0.10;;;;;;;;;;5008985;28;20040;-85
2022/05/18 07:30:43;;;;;;;0.30;0.20;;;;;;;;;;4994074;28;20482;-84
2022/05/18 07:33:08;;;;;;;0.25;0.17;;;;;;;;;;5007458;28;20128;-85
2022/05/18 07:35:34;;;;;;;2.10;0.43;;;;;;;;;;5009766;28;20037;-84
2022/05/18 07:37:59;;;;;;;0.85;0.52;;;;;;;;;;4993576;28;20037;-83
2022/05/18 07:40:25;;;;;;;0.25;0.15;;;;;;;;;;4994990;28;20417;-85
2022/05/18 07:42:54;;;;;;;0.75;0.25;;;;;;;;;;4993146;28;20057;-83
2022/05/18 07:45:21;;;;;;;0.30;0.20;;;;;;;;;;5008641;28;20049;-85
2022/05/18 07:47:46;;;;;;;4.57;0.82;;;;;;;;;;4994498;28;20033;-84
2022/05/18 07:50:12;;;;;;;1.08;0.52;;;;;;;;;;4993462;28;20397;-85
2022/05/18 07:52:38;;;;;;;1.80;0.52;;;;;;;;;;4974349;28;20038;-84
2022/05/18 07:55:06;;;;;;;1.13;0.47;;;;;;;;;;4976856;28;20065;-84
2022/05/18 07:57:33;;;;;;;0.85;0.50;;;;;;;;;;4992359;28;20037;-83
2022/05/18 07:59:59;;;;;;;1.98;0.57;;;;;;;;;;4980445;28;20046;-85
2022/05/18 08:02:26;;;;;;;1.23;0.53;;;;;;;;;;4988362;28;20030;-84
2022/05/18 08:04:52;;;;;;;0.00;0.00;;;;;;;;;;4974933;28;20538;-83
2022/05/18 08:07:17;;;;;;;3.05;0.50;;;;;;;;;;4983360;28;20117;-84
2022/05/18 08:15:11;;;;;;;34.05;1.92;;;;;;;;;;4990951;28;20950;-84
2022/05/18 08:17:36;;;;;;;0.63;0.30;;;;;;;;;;4987711;28;20034;-83
2022/05/18 08:20:06;;;;;;;0.45;0.30;;;;;;;;;;4975495;28;20548;-85
2022/05/18 08:22:31;;;;;;;0.68;0.20;;;;;;;;;;4980160;28;20525;-81
2022/05/18 08:24:57;;;;;;;0.85;0.55;;;;;;;;;;4979188;28;20049;-83
2022/05/18 08:27:22;;;;;;;0.57;0.30;;;;;;;;;;4990893;28;20034;-78
2022/05/18 08:29:47;;;;;;;1.65;0.40;;;;;;;;;;4994457;28;20050;-85
2022/05/18 08:32:13;;;;;;;0.80;0.35;;;;;;;;;;4979713;28;20041;-82
2022/05/18 08:34:38;;;;;;;1.45;0.50;;;;;;;;;;4992530;28;20026;-82
2022/05/18 08:37:03;;;;;;;0.20;0.10;;;;;;;;;;4983637;28;20048;-83
2022/05/18 08:39:29;;;;;;;1.08;0.47;;;;;;;;;;4974897;28;20041;-84
2022/05/18 08:41:55;;;;;;;0.75;0.35;;;;;;;;;;4987388;28;20048;-82
2022/05/18 08:44:28;;;;;;;0.32;0.20;;;;;;;;;;4972914;28;20433;-83
2022/05/18 08:47:21;;;;;;;0.80;0.30;;;;;;;;;;4973465;28;20042;-83
2022/05/18 08:49:56;;;;;;;0.52;0.22;;;;;;;;;;4998744;28;20048;-83
2022/05/18 08:52:27;;;;;;;0.47;0.35;;;;;;;;;;4988454;28;20034;-85
2022/05/18 08:55:15;;;;;;;0.63;0.40;;;;;;;;;;4989595;28;20073;-84
2022/05/18 08:57:42;;;;;;;0.40;0.20;;;;;;;;;;4992026;28;20045;-82
2022/05/18 09:00:17;;;;;;;0.50;0.20;;;;;;;;;;4990870;28;20064;-83
2022/05/18 09:02:44;;;;;;;0.65;0.30;;;;;;;;;;4990822;28;20040;-84
2022/05/18 09:05:31;;;;;;;0.20;0.15;;;;;;;;;;5008696;28;20504;-84
2022/05/18 09:08:10;;;;;;;0.43;0.30;;;;;;;;;;5010047;28;20042;-84
2022/05/18 09:10:41;;;;;;;0.95;0.45;;;;;;;;;;5010102;28;20076;-85
2022/05/18 09:13:06;;;;;;;1.65;0.73;;;;;;;;;;5008928;28;20034;-87
2022/05/18 09:15:58;;;;;;;0.88;0.50;;;;;;;;;;4992671;28;20068;-84
2022/05/18 09:18:44;;;;;;;0.45;0.25;;;;;;;;;;5007463;28;20473;-84
2022/05/18 09:21:37;;;;;;;2.47;0.70;;;;;;;;;;4997664;28;20088;-85
2022/05/18 09:24:24;;;;;;;2.70;0.80;;;;;;;;;;5008318;28;20672;-87
2022/05/18 09:26:49;;;;;;;;;;;;;;;;;;5008499;28;20518;-85
2022/05/18 09:29:29;;;;;;;1.27;0.47;;;;;;;;;;5007149;28;20042;-85
2022/05/18 09:32:19;;;;;;;0.73;0.20;;;;;;;;;;4994747;28;20099;-83
2022/05/18 09:34:58;;;;;;;0.82;0.20;;;;;;;;;;4992325;28;20046;-82
2022/05/18 09:37:46;;;;;;;1.05;0.43;;;;;;;;;;4991029;28;20105;-82
2022/05/18 09:40:21;;;;;;;10.45;1.42;;;;;;;;;;4992461;28;20049;-84
2022/05/18 09:42:59;;;;;;;0.40;0.17;;;;;;;;;;5009831;28;20741;-89
2022/05/18 09:45:28;;;;;;;1.50;0.55;;;;;;;;;;4991796;28;20045;-87
2022/05/18 09:48:39;;;;;;;0.45;0.15;;;;;;;;;;5008430;28;20037;-83
2022/05/18 09:51:05;;;;;;;0.68;0.20;;;;;;;;;;4951804;28;20034;-86
2022/05/18 09:53:30;;;;;;;1.03;0.40;;;;;;;;;;4989060;28;20508;-84
2022/05/18 09:55:56;;;;;;;0.97;0.30;;;;;;;;;;4988144;28;20035;-83
2022/05/18 09:58:29;;;;;;;0.40;0.10;;;;;;;;;;5020225;28;20933;-84
2022/05/18 10:09:22;;;;;;;1.33;0.47;;;;;;;;;;5012623;28;20175;-84
2022/05/18 10:11:47;;;;;;;2.67;0.43;;;;;;;;;;5012199;28;20065;-88
2022/05/18 10:14:28;;;;;;;1.17;0.50;;;;;;;;;;4997626;28;20041;-87
2022/05/18 10:17:04;;;;;;;0.73;0.30;;;;;;;;;;4993887;28;20049;-85
2022/05/18 10:19:33;;;;;;;2.42;0.35;;;;;;;;;;4990956;28;20029;-85
2022/05/18 10:22:02;;;;;;;0.73;0.40;;;;;;;;;;4995759;28;20038;-85
2022/05/18 10:24:44;;;;;;;0.70;0.30;;;;;;;;;;5016351;28;20143;-87
2022/05/18 10:27:16;;;;;;;0.68;0.40;;;;;;;;;;5000107;28;21022;-87
2022/05/18 10:29:51;;;;;;;0.70;0.30;;;;;;;;;;5013600;28;20730;-86
2022/05/18 10:32:23;;;;;;;0.82;0.45;;;;;;;;;;5011651;28;20033;-85
2022/05/18 10:34:52;;;;;;;1.45;0.40;;;;;;;;;;5013908;28;20152;-85
2022/05/18 10:37:26;;;;;;;2.72;0.95;;;;;;;;;;4980590;28;20038;-85
2022/05/18 10:39:57;;;;;;;9.82;0.63;;;;;;;;;;5013972;28;20045;-86
2022/05/18 10:42:26;;;;;;;4.45;0.40;;;;;;;;;;5003288;28;20448;-88
2022/05/18 10:44:52;;;;;;;0.77;0.30;;;;;;;;;;5029894;28;20107;-83
2022/05/18 10:47:21;;;;;;;0.88;0.40;;;;;;;;;;4965677;28;20128;-84
2022/05/18 10:49:50;;;;;;;0.32;0.20;;;;;;;;;;4993418;28;20049;-84
2022/05/18 10:52:33;;;;;;;0.98;0.40;;;;;;;;;;4977648;28;20069;-86
2022/05/18 10:55:14;;;;;;;0.82;0.28;;;;;;;;;;4986959;28;20044;-85
2022/05/18 10:57:40;;;;;;;1.60;0.55;;;;;;;;;;5012904;28;20056;-86
2022/05/18 11:00:11;;;;;;;;;;;;;;;;;;5009589;28;20841;-84
2022/05/18 11:02:48;;;;;;;1.17;0.40;;;;;;;;;;4993301;28;19913;-84
2022/05/18 11:05:19;;;;;;;0.85;0.47;;;;;;;;;;4999296;28;20134;-84
2022/05/18 11:07:45;;;;;;;0.90;0.30;;;;;;;;;;5009731;28;20567;-85
2022/05/18 11:10:11;;;;;;;1.25;0.52;;;;;;;;;;5010172;28;24857;-84
2022/05/18 11:12:48;;;;;;;0.88;0.45;;;;;;;;;;5007240;28;20570;-84
2022/05/18 11:15:27;;;;;;;1.58;0.60;;;;;;;;;;5029055;28;20120;-85
2022/05/18 11:18:29;;;;;;;1.23;0.40;;;;;;;;;;4995823;28;20436;-84
2022/05/18 11:21:25;;;;;;;1.10;0.50;;;;;;;;;;5012289;28;20306;-82
2022/05/18 11:24:07;;;;;;;1.60;0.65;;;;;;;;;;5011896;28;20083;-82
2022/05/18 11:26:40;;;;;;;0.73;0.40;;;;;;;;;;5012444;28;20043;-83
2022/05/18 11:29:33;;;;;;;1.00;0.30;;;;;;;;;;4994205;28;20045;-87
2022/05/18 11:32:15;;;;;;;1.70;0.30;;;;;;;;;;4983181;28;20618;-85
2022/05/18 11:34:49;;;;;;;1.63;0.68;;;;;;;;;;4992542;28;22242;-86
2022/05/18 11:37:32;;;;;;;1.02;0.50;;;;;;;;;;5012178;28;20033;-86
2022/05/18 11:40:22;;;;;;;0.95;0.50;;;;;;;;;;5013255;28;20564;-86
2022/05/18 11:43:28;;;;;;;8.82;0.38;;;;;;;;;;5012732;28;20508;-83
2022/05/18 11:46:30;;;;;;;1.23;0.52;;;;;;;;;;4998357;28;20052;-81
2022/05/18 11:49:23;;;;;;;3.58;0.77;;;;;;;;;;5014121;28;20063;-85
2022/05/18 11:52:20;;;;;;;0.98;0.35;;;;;;;;;;5000284;28;20103;-84
2022/05/18 11:55:07;;;;;;;1.42;0.50;;;;;;;;;;4990790;28;20041;-83
2022/05/18 11:57:42;;;;;;;1.27;0.50;;;;;;;;;;5029669;28;20071;-86
2022/05/18 12:00:33;;;;;;;0.20;0.10;;;;;;;;;;4998434;28;20037;-80
2022/05/18 12:03:17;;;;;;;1.58;0.70;;;;;;;;;;5012159;28;20104;-82
2022/05/18 12:05:51;;;;;;;1.92;0.82;;;;;;;;;;5000234;28;20091;-83
2022/05/18 12:08:30;;;;;;;2.22;0.80;;;;;;;;;;5010627;28;20042;-84
2022/05/18 12:11:12;;;;;;;2.60;0.60;;;;;;;;;;5010202;28;20516;-86
2022/05/18 12:13:57;;;;;;;1.00;0.30;;;;;;;;;;4993254;28;20497;-87
2022/05/18 12:16:23;;;;;;;1.00;0.30;;;;;;;;;;5025785;28;20033;-82
2022/05/18 12:18:57;;;;;;;1.67;0.55;;;;;;;;;;4982301;28;20042;-84
2022/05/18 12:21:42;;;;;;;0.82;0.45;;;;;;;;;;5011663;28;20060;-82
2022/05/18 12:24:08;;;;;;;0.88;0.47;;;;;;;;;;4996378;28;20095;-84
2022/05/18 12:26:36;;;;;;;3.75;0.98;;;;;;;;;;5010585;28;20037;-82
2022/05/18 12:29:04;;;;;;;0.93;0.50;;;;;;;;;;5000280;28;20033;-84
2022/05/18 12:31:50;;;;;;;0.70;0.35;;;;;;;;;;5006832;28;20393;-84
2022/05/18 12:34:21;;;;;;;1.88;0.70;;;;;;;;;;5012196;28;20041;-85
2022/05/18 12:36:56;;;;;;;0.60;0.30;;;;;;;;;;4990628;28;20045;-86
2022/05/18 12:39:47;;;;;;;0.73;0.40;;;;;;;;;;4974941;28;20045;-83
2022/05/18 12:42:24;;;;;;;1.20;0.60;;;;;;;;;;4973124;28;20034;-84
2022/05/18 12:44:53;;;;;;;3.50;1.13;;;;;;;;;;4974681;28;20073;-85
2022/05/18 12:47:24;;;;;;;1.25;0.60;;;;;;;;;;5010986;28;20053;-83
2022/05/18 12:49:56;;;;;;;1.00;0.55;;;;;;;;;;4992991;28;20075;-84
2022/05/18 12:52:36;;;;;;;6.80;0.85;;;;;;;;;;4983433;28;20033;-85
2022/05/18 12:55:25;;;;;;;1.27;0.70;;;;;;;;;;5008147;28;20041;-83
2022/05/18 12:57:53;;;;;;;1.65;1.00;;;;;;;;;;4944425;28;20045;-83
2022/05/18 13:00:25;;;;;;;0.35;0.22;;;;;;;;;;4973982;28;20072;-83
2022/05/18 13:03:02;;;;;;;0.75;0.47;;;;;;;;;;4981991;28;20784;-82
2022/05/18 13:05:42;;;;;;;0.82;0.35;;;;;;;;;;4982129;28;20072;-85
2022/05/18 13:08:37;;;;;;;1.73;0.50;;;;;;;;;;4993400;28;20064;-81
2022/05/18 13:11:27;;;;;;;0.65;0.30;;;;;;;;;;4997915;28;20039;-84
2022/05/18 13:13:53;;;;;;;5.22;0.95;;;;;;;;;;5010713;28;20048;-84
2022/05/18 13:16:18;;;;;;;0.73;0.40;;;;;;;;;;5030096;28;20037;-82
2022/05/18 13:18:43;;;;;;;1.90;0.75;;;;;;;;;;4996174;28;20465;-83
2022/05/18 13:21:08;;;;;;;2.00;0.50;;;;;;;;;;4996277;28;20045;-82
2022/05/18 13:24:02;;;;;;;1.23;0.70;;;;;;;;;;5011614;28;20413;-82
2022/05/18 13:26:34;;;;;;;0.70;0.30;;;;;;;;;;4994267;28;20704;-85
2022/05/18 13:29:08;;;;;;;0.77;0.40;;;;;;;;;;4994415;28;20557;-87
2022/05/18 13:31:35;;;;;;;1.55;0.55;;;;;;;;;;5011384;28;20048;-85
2022/05/18 13:34:11;;;;;;;0.73;0.40;;;;;;;;;;4996915;28;20041;-85
2022/05/18 13:36:47;;;;;;;1.25;0.65;;;;;;;;;;5011926;28;20035;-84
2022/05/18 13:39:18;;;;;;;2.42;1.13;;;;;;;;;;5000610;28;20037;-85
2022/05/18 13:41:46;;;;;;;0.60;0.32;;;;;;;;;;4980552;28;20034;-86
2022/05/18 13:44:12;;;;;;;0.90;0.45;;;;;;;;;;5008539;28;20041;-85
2022/05/18 13:46:37;;;;;;;1.92;0.63;;;;;;;;;;4998134;28;20033;-86
2022/05/18 13:49:08;;;;;;;0.60;0.40;;;;;;;;;;5000027;28;20075;-84
2022/05/18 13:51:37;;;;;;;0.73;0.40;;;;;;;;;;5015268;28;20037;-84
2022/05/18 13:54:08;;;;;;;0.63;0.38;;;;;;;;;;4996578;28;20030;-85
2022/05/18 13:56:37;;;;;;;0.45;0.32;;;;;;;;;;4997785;28;20033;-88
2022/05/18 13:59:07;;;;;;;2.15;0.75;;;;;;;;;;5015689;28;20044;-87
2022/05/18 14:01:40;;;;;;;2.65;0.52;;;;;;;;;;5013645;28;20109;-85
2022/05/18 14:04:06;;;;;;;1.80;0.90;;;;;;;;;;4999578;28;20102;-84
2022/05/18 14:06:32;;;;;;;1.20;0.70;;;;;;;;;;5012238;28;20072;-86
2022/05/18 14:09:03;;;;;;;0.93;0.50;;;;;;;;;;4998710;28;20044;-89
2022/05/18 14:11:29;;;;;;;2.05;0.73;;;;;;;;;;5015656;28;20554;-85
2022/05/18 14:13:57;;;;;;;1.85;0.68;;;;;;;;;;5015237;28;20037;-84
2022/05/18 14:16:30;;;;;;;0.75;0.40;;;;;;;;;;5013328;28;20119;-84
2022/05/18 14:18:58;;;;;;;3.03;1.20;;;;;;;;;;5010013;28;20113;-85
2022/05/18 14:21:23;;;;;;;;;;;;;;;;;;5014027;28;20037;-86
2022/05/18 14:24:07;;;;;;;1.85;0.60;;;;;;;;;;5015208;28;20403;-82
2022/05/18 14:26:38;;;;;;;1.05;0.57;;;;;;;;;;4992880;28;20048;-86
2022/05/18 14:29:06;;;;;;;0.85;0.43;;;;;;;;;;5009889;28;20037;-87
2022/05/18 14:31:33;;;;;;;7.30;1.42;;;;;;;;;;4994043;28;20046;-85
2022/05/18 14:34:02;;;;;;;2.03;0.90;;;;;;;;;;4994166;28;20041;-86
2022/05/18 14:36:35;;;;;;;3.20;0.60;;;;;;;;;;4994572;28;20477;-87
2022/05/18 14:39:07;;;;;;;3.75;1.13;;;;;;;;;;5006276;28;20045;-88
2022/05/18 14:41:38;;;;;;;1.05;0.65;;;;;;;;;;4980637;28;20113;-85
2022/05/18 14:44:03;;;;;;;1.02;0.50;;;;;;;;;;4978202;28;20040;-87
2022/05/18 14:46:31;;;;;;;1.88;0.95;;;;;;;;;;4992894;28;20034;-90
2022/05/18 14:49:02;;;;;;;1.40;0.60;;;;;;;;;;4978241;28;20058;-85
2022/05/18 14:51:58;;;;;;;1.38;0.80;;;;;;;;;;4980190;28;20152;-88
2022/05/18 14:54:24;;;;;;;2.17;0.80;;;;;;;;;;5014125;28;20579;-83
2022/05/18 14:56:55;;;;;;;1.92;1.10;;;;;;;;;;4999099;28;20095;-90
2022/05/18 14:59:20;;;;;;;2.88;0.88;;;;;;;;;;4989418;28;20115;-87
2022/05/18 15:01:57;;;;;;;1.13;0.60;;;;;;;;;;4981850;28;20528;-86
2022/05/18 15:04:31;;;;;;;1.42;0.73;;;;;;;;;;4977699;28;20041;-85
2022/05/18 15:07:04;;;;;;;1.58;0.85;;;;;;;;;;5010279;28;20590;-85
2022/05/18 15:09:35;;;;;;;1.27;0.77;;;;;;;;;;5026407;28;20985;-90
2022/05/18 15:12:05;;;;;;;1.27;0.60;;;;;;;;;;5026531;28;20562;-88
2022/05/18 15:14:41;;;;;;;1.98;0.70;;;;;;;;;;4978307;28;20041;-86
2022/05/18 15:17:22;;;;;;;2.00;1.05;;;;;;;;;;5000926;28;20058;-91
2022/05/18 15:19:58;;;;;;;0.75;0.40;;;;;;;;;;4980838;28;20045;-86
2022/05/18 15:22:32;;;;;;;2.55;0.95;;;;;;;;;;4978815;28;20137;-86